Terminal Aerodrome Forecast
Issued by NWS

Home | Current Version | Previous Version | Text Only | Print | Product List | Glossary On
Versions: 1 2 3 4 5 6 7 8 9 10 11 12 13 14
000
FTUS45 KBYZ 042325
TAFLVM
TAF
KLVM 042325Z 0500/0524 23026G40KT P6SM -SN BKN060
     FM050300 26018G35KT 3SM -SN BR SCT015 BKN025
     FM050600 30014G25KT 3SM -SN BR SCT015 BKN025
     FM050900 27014KT P6SM -SN SCT050
     FM051200 26012G25KT P6SM -SN SCT050
     FM052000 27014G22KT P6SM SCT025=

USA.gov is the U.S. government's official web portal to all federal, state and local government web resources and services.